sensor_id;sensor_type;location;lat;lon;timestamp;P1;durP1;ratioP1;P2;durP2;ratioP2
30998;SDS011;20549;50.042;8.968;2022-09-09T00:00:32;1.42;;;1.10;;
30998;SDS011;20549;50.042;8.968;2022-09-09T00:03:02;1.70;;;1.15;;
30998;SDS011;20549;50.042;8.968;2022-09-09T00:08:40;2.42;;;1.30;;
30998;SDS011;20549;50.042;8.968;2022-09-09T00:11:12;2.27;;;1.10;;
30998;SDS011;20549;50.042;8.968;2022-09-09T00:13:39;1.75;;;1.47;;
30998;SDS011;20549;50.042;8.968;2022-09-09T00:16:08;2.33;;;1.20;;
30998;SDS011;20549;50.042;8.968;2022-09-09T00:18:54;1.62;;;1.30;;
30998;SDS011;20549;50.042;8.968;2022-09-09T00:21:35;1.82;;;1.10;;
30998;SDS011;20549;50.042;8.968;2022-09-09T00:23:57;1.98;;;1.30;;
30998;SDS011;20549;50.042;8.968;2022-09-09T00:26:35;1.75;;;1.25;;
30998;SDS011;20549;50.042;8.968;2022-09-09T00:29:08;3.17;;;1.50;;
30998;SDS011;20549;50.042;8.968;2022-09-09T00:31:31;1.72;;;1.20;;
30998;SDS011;20549;50.042;8.968;2022-09-09T00:33:58;1.20;;;1.00;;
30998;SDS011;20549;50.042;8.968;2022-09-09T00:36:24;1.10;;;0.97;;
30998;SDS011;20549;50.042;8.968;2022-09-09T00:38:52;2.90;;;1.40;;
30998;SDS011;20549;50.042;8.968;2022-09-09T00:43:57;1.98;;;1.22;;
30998;SDS011;20549;50.042;8.968;2022-09-09T00:49:13;2.20;;;1.12;;
30998;SDS011;20549;50.042;8.968;2022-09-09T00:52:03;2.72;;;1.20;;
30998;SDS011;20549;50.042;8.968;2022-09-09T00:54:45;3.40;;;1.50;;
30998;SDS011;20549;50.042;8.968;2022-09-09T00:57:25;1.37;;;1.27;;
30998;SDS011;20549;50.042;8.968;2022-09-09T00:59:52;1.32;;;1.22;;
30998;SDS011;20549;50.042;8.968;2022-09-09T01:02:26;1.40;;;1.30;;
30998;SDS011;20549;50.042;8.968;2022-09-09T01:04:59;1.20;;;1.10;;
30998;SDS011;20549;50.042;8.968;2022-09-09T01:07:28;1.72;;;1.17;;
30998;SDS011;20549;50.042;8.968;2022-09-09T01:09:58;2.15;;;1.15;;
30998;SDS011;20549;50.042;8.968;2022-09-09T01:12:25;1.90;;;1.67;;
30998;SDS011;20549;50.042;8.968;2022-09-09T01:14:52;1.30;;;1.07;;
30998;SDS011;20549;50.042;8.968;2022-09-09T01:17:30;2.30;;;1.20;;
30998;SDS011;20549;50.042;8.968;2022-09-09T01:20:04;3.30;;;1.37;;
30998;SDS011;20549;50.042;8.968;2022-09-09T01:27:45;1.37;;;1.15;;
30998;SDS011;20549;50.042;8.968;2022-09-09T01:30:12;3.08;;;1.32;;
30998;SDS011;20549;50.042;8.968;2022-09-09T01:32:39;0.93;;;0.93;;
30998;SDS011;20549;50.042;8.968;2022-09-09T01:35:18;1.30;;;1.20;;
30998;SDS011;20549;50.042;8.968;2022-09-09T01:37:52;1.47;;;1.20;;
30998;SDS011;20549;50.042;8.968;2022-09-09T01:40:18;1.52;;;1.20;;
30998;SDS011;20549;50.042;8.968;2022-09-09T01:42:45;1.67;;;1.10;;
30998;SDS011;20549;50.042;8.968;2022-09-09T01:45:11;2.83;;;1.30;;
30998;SDS011;20549;50.042;8.968;2022-09-09T01:47:38;1.60;;;1.27;;
30998;SDS011;20549;50.042;8.968;2022-09-09T01:50:04;2.70;;;1.92;;
30998;SDS011;20549;50.042;8.968;2022-09-09T01:52:31;2.43;;;1.40;;
30998;SDS011;20549;50.042;8.968;2022-09-09T01:54:58;3.07;;;1.60;;
30998;SDS011;20549;50.042;8.968;2022-09-09T01:57:25;2.40;;;1.40;;
30998;SDS011;20549;50.042;8.968;2022-09-09T02:00:01;2.40;;;1.30;;
30998;SDS011;20549;50.042;8.968;2022-09-09T02:02:32;1.30;;;1.20;;
30998;SDS011;20549;50.042;8.968;2022-09-09T02:05:00;1.97;;;1.20;;
30998;SDS011;20549;50.042;8.968;2022-09-09T02:07:39;3.33;;;1.40;;
30998;SDS011;20549;50.042;8.968;2022-09-09T02:10:17;1.67;;;1.07;;
30998;SDS011;20549;50.042;8.968;2022-09-09T02:12:47;3.43;;;1.30;;
30998;SDS011;20549;50.042;8.968;2022-09-09T02:16:03;2.20;;;1.10;;
30998;SDS011;20549;50.042;8.968;2022-09-09T02:18:00;1.77;;;1.40;;
30998;SDS011;20549;50.042;8.968;2022-09-09T02:20:26;2.47;;;1.30;;
30998;SDS011;20549;50.042;8.968;2022-09-09T02:22:53;2.23;;;1.30;;
30998;SDS011;20549;50.042;8.968;2022-09-09T02:25:21;2.33;;;1.32;;
30998;SDS011;20549;50.042;8.968;2022-09-09T02:27:46;3.52;;;1.35;;
30998;SDS011;20549;50.042;8.968;2022-09-09T02:30:13;2.27;;;1.40;;
30998;SDS011;20549;50.042;8.968;2022-09-09T02:32:39;2.73;;;1.40;;
30998;SDS011;20549;50.042;8.968;2022-09-09T02:35:10;2.37;;;1.73;;
30998;SDS011;20549;50.042;8.968;2022-09-09T02:37:34;2.17;;;1.40;;
30998;SDS011;20549;50.042;8.968;2022-09-09T02:40:05;1.37;;;1.20;;
30998;SDS011;20549;50.042;8.968;2022-09-09T02:42:31;1.47;;;1.37;;
30998;SDS011;20549;50.042;8.968;2022-09-09T02:44:58;2.40;;;1.30;;
30998;SDS011;20549;50.042;8.968;2022-09-09T02:50:02;6.10;;;1.50;;
30998;SDS011;20549;50.042;8.968;2022-09-09T02:55:25;2.40;;;1.27;;
30998;SDS011;20549;50.042;8.968;2022-09-09T02:57:50;1.83;;;1.27;;
30998;SDS011;20549;50.042;8.968;2022-09-09T03:00:22;2.03;;;1.57;;
30998;SDS011;20549;50.042;8.968;2022-09-09T03:02:43;2.87;;;1.20;;
30998;SDS011;20549;50.042;8.968;2022-09-09T03:05:10;1.53;;;1.20;;
30998;SDS011;20549;50.042;8.968;2022-09-09T03:07:36;1.25;;;1.10;;
30998;SDS011;20549;50.042;8.968;2022-09-09T03:10:03;3.90;;;1.50;;
30998;SDS011;20549;50.042;8.968;2022-09-09T03:12:29;2.10;;;1.47;;
30998;SDS011;20549;50.042;8.968;2022-09-09T03:14:56;1.65;;;1.32;;
30998;SDS011;20549;50.042;8.968;2022-09-09T03:17:23;2.20;;;1.33;;
30998;SDS011;20549;50.042;8.968;2022-09-09T03:19:49;4.53;;;1.40;;
30998;SDS011;20549;50.042;8.968;2022-09-09T03:22:16;2.58;;;1.30;;
30998;SDS011;20549;50.042;8.968;2022-09-09T03:24:42;2.40;;;1.10;;
30998;SDS011;20549;50.042;8.968;2022-09-09T03:27:09;1.23;;;1.13;;
30998;SDS011;20549;50.042;8.968;2022-09-09T03:29:35;1.10;;;1.00;;
30998;SDS011;20549;50.042;8.968;2022-09-09T03:32:02;1.27;;;1.17;;
30998;SDS011;20549;50.042;8.968;2022-09-09T03:34:29;3.13;;;1.50;;
30998;SDS011;20549;50.042;8.968;2022-09-09T03:36:55;1.45;;;1.07;;
30998;SDS011;20549;50.042;8.968;2022-09-09T03:39:22;1.82;;;1.27;;
30998;SDS011;20549;50.042;8.968;2022-09-09T03:41:48;1.67;;;1.25;;
30998;SDS011;20549;50.042;8.968;2022-09-09T03:44:15;1.40;;;1.27;;
30998;SDS011;20549;50.042;8.968;2022-09-09T03:46:42;2.63;;;1.40;;
30998;SDS011;20549;50.042;8.968;2022-09-09T03:49:08;1.60;;;1.22;;
30998;SDS011;20549;50.042;8.968;2022-09-09T03:51:35;2.93;;;1.23;;
30998;SDS011;20549;50.042;8.968;2022-09-09T03:54:01;1.60;;;1.43;;
30998;SDS011;20549;50.042;8.968;2022-09-09T03:56:28;2.55;;;1.40;;
30998;SDS011;20549;50.042;8.968;2022-09-09T03:58:54;1.53;;;1.37;;
30998;SDS011;20549;50.042;8.968;2022-09-09T04:01:21;1.60;;;1.40;;
30998;SDS011;20549;50.042;8.968;2022-09-09T04:03:48;1.10;;;1.00;;
30998;SDS011;20549;50.042;8.968;2022-09-09T04:06:14;2.37;;;1.47;;
30998;SDS011;20549;50.042;8.968;2022-09-09T04:08:41;3.27;;;1.40;;
30998;SDS011;20549;50.042;8.968;2022-09-09T04:11:07;1.20;;;1.10;;
30998;SDS011;20549;50.042;8.968;2022-09-09T04:13:35;1.30;;;1.13;;
30998;SDS011;20549;50.042;8.968;2022-09-09T04:16:01;3.63;;;1.40;;
30998;SDS011;20549;50.042;8.968;2022-09-09T04:18:27;2.43;;;1.53;;
30998;SDS011;20549;50.042;8.968;2022-09-09T04:20:54;2.10;;;1.37;;
30998;SDS011;20549;50.042;8.968;2022-09-09T04:23:20;1.13;;;1.13;;
30998;SDS011;20549;50.042;8.968;2022-09-09T04:25:48;3.63;;;1.40;;
30998;SDS011;20549;50.042;8.968;2022-09-09T04:28:14;1.83;;;1.37;;
30998;SDS011;20549;50.042;8.968;2022-09-09T04:30:40;1.53;;;1.43;;
30998;SDS011;20549;50.042;8.968;2022-09-09T04:33:07;2.70;;;1.67;;
30998;SDS011;20549;50.042;8.968;2022-09-09T04:35:33;3.15;;;1.35;;
30998;SDS011;20549;50.042;8.968;2022-09-09T04:38:00;1.87;;;1.43;;
30998;SDS011;20549;50.042;8.968;2022-09-09T04:40:26;2.70;;;1.50;;
30998;SDS011;20549;50.042;8.968;2022-09-09T04:42:53;2.00;;;1.30;;
30998;SDS011;20549;50.042;8.968;2022-09-09T04:45:20;1.63;;;1.53;;
30998;SDS011;20549;50.042;8.968;2022-09-09T04:47:46;1.27;;;1.20;;
30998;SDS011;20549;50.042;8.968;2022-09-09T04:50:13;2.40;;;1.30;;
30998;SDS011;20549;50.042;8.968;2022-09-09T04:52:39;3.20;;;1.30;;
30998;SDS011;20549;50.042;8.968;2022-09-09T04:55:06;2.07;;;1.33;;
30998;SDS011;20549;50.042;8.968;2022-09-09T04:57:34;3.23;;;1.13;;
30998;SDS011;20549;50.042;8.968;2022-09-09T04:59:59;2.13;;;1.00;;
30998;SDS011;20549;50.042;8.968;2022-09-09T05:02:26;1.65;;;1.35;;
30998;SDS011;20549;50.042;8.968;2022-09-09T05:04:53;2.98;;;1.40;;
30998;SDS011;20549;50.042;8.968;2022-09-09T05:07:19;3.43;;;1.27;;
30998;SDS011;20549;50.042;8.968;2022-09-09T05:09:46;3.20;;;1.93;;
30998;SDS011;20549;50.042;8.968;2022-09-09T05:12:12;1.57;;;1.40;;
30998;SDS011;20549;50.042;8.968;2022-09-09T05:14:39;1.60;;;1.47;;
30998;SDS011;20549;50.042;8.968;2022-09-09T05:17:05;1.47;;;1.37;;
30998;SDS011;20549;50.042;8.968;2022-09-09T05:19:32;1.50;;;1.40;;
30998;SDS011;20549;50.042;8.968;2022-09-09T05:21:59;1.15;;;1.05;;
30998;SDS011;20549;50.042;8.968;2022-09-09T05:24:25;1.40;;;1.30;;
30998;SDS011;20549;50.042;8.968;2022-09-09T05:26:52;1.52;;;1.30;;
30998;SDS011;20549;50.042;8.968;2022-09-09T05:29:18;1.55;;;1.02;;
30998;SDS011;20549;50.042;8.968;2022-09-09T05:31:45;1.30;;;1.20;;
30998;SDS011;20549;50.042;8.968;2022-09-09T05:34:12;3.58;;;1.50;;
30998;SDS011;20549;50.042;8.968;2022-09-09T05:36:38;2.62;;;1.57;;
30998;SDS011;20549;50.042;8.968;2022-09-09T05:39:05;1.98;;;1.27;;
30998;SDS011;20549;50.042;8.968;2022-09-09T05:41:31;1.50;;;1.40;;
30998;SDS011;20549;50.042;8.968;2022-09-09T05:43:58;3.42;;;1.50;;
30998;SDS011;20549;50.042;8.968;2022-09-09T05:46:25;1.67;;;1.32;;
30998;SDS011;20549;50.042;8.968;2022-09-09T05:48:51;2.02;;;1.12;;
30998;SDS011;20549;50.042;8.968;2022-09-09T05:51:19;3.72;;;1.30;;
30998;SDS011;20549;50.042;8.968;2022-09-09T05:53:45;1.80;;;1.20;;
30998;SDS011;20549;50.042;8.968;2022-09-09T05:56:12;1.25;;;1.10;;
30998;SDS011;20549;50.042;8.968;2022-09-09T05:58:38;1.92;;;1.67;;
30998;SDS011;20549;50.042;8.968;2022-09-09T06:01:05;3.37;;;1.62;;
30998;SDS011;20549;50.042;8.968;2022-09-09T06:03:31;1.40;;;1.05;;
30998;SDS011;20549;50.042;8.968;2022-09-09T06:05:58;3.87;;;1.70;;
30998;SDS011;20549;50.042;8.968;2022-09-09T06:08:26;2.52;;;1.20;;
30998;SDS011;20549;50.042;8.968;2022-09-09T06:10:53;2.42;;;0.93;;
30998;SDS011;20549;50.042;8.968;2022-09-09T06:13:20;3.72;;;1.37;;
30998;SDS011;20549;50.042;8.968;2022-09-09T06:15:50;1.35;;;0.93;;
30998;SDS011;20549;50.042;8.968;2022-09-09T06:18:16;1.40;;;1.00;;
30998;SDS011;20549;50.042;8.968;2022-09-09T06:20:42;1.80;;;0.95;;
30998;SDS011;20549;50.042;8.968;2022-09-09T06:23:09;2.08;;;0.95;;
30998;SDS011;20549;50.042;8.968;2022-09-09T06:25:35;1.85;;;0.85;;
30998;SDS011;20549;50.042;8.968;2022-09-09T06:28:02;1.72;;;0.80;;
30998;SDS011;20549;50.042;8.968;2022-09-09T06:30:29;3.58;;;1.10;;
30998;SDS011;20549;50.042;8.968;2022-09-09T06:32:55;1.80;;;1.12;;
30998;SDS011;20549;50.042;8.968;2022-09-09T06:35:22;1.80;;;1.12;;
30998;SDS011;20549;50.042;8.968;2022-09-09T06:37:48;1.42;;;0.70;;
30998;SDS011;20549;50.042;8.968;2022-09-09T06:40:15;1.15;;;0.70;;
30998;SDS011;20549;50.042;8.968;2022-09-09T06:42:42;2.10;;;0.82;;
30998;SDS011;20549;50.042;8.968;2022-09-09T06:45:08;0.75;;;0.60;;
30998;SDS011;20549;50.042;8.968;2022-09-09T06:47:35;1.20;;;0.65;;
30998;SDS011;20549;50.042;8.968;2022-09-09T06:50:01;1.42;;;0.60;;
30998;SDS011;20549;50.042;8.968;2022-09-09T06:52:28;2.00;;;0.68;;
30998;SDS011;20549;50.042;8.968;2022-09-09T06:54:55;1.95;;;0.82;;
30998;SDS011;20549;50.042;8.968;2022-09-09T06:57:21;0.80;;;0.60;;
30998;SDS011;20549;50.042;8.968;2022-09-09T06:59:48;1.27;;;0.68;;
30998;SDS011;20549;50.042;8.968;2022-09-09T07:02:14;1.95;;;1.10;;
30998;SDS011;20549;50.042;8.968;2022-09-09T07:04:41;2.20;;;0.68;;
30998;SDS011;20549;50.042;8.968;2022-09-09T07:07:07;1.95;;;0.82;;
30998;SDS011;20549;50.042;8.968;2022-09-09T07:09:34;1.40;;;0.70;;
30998;SDS011;20549;50.042;8.968;2022-09-09T07:12:01;1.72;;;0.93;;
30998;SDS011;20549;50.042;8.968;2022-09-09T07:14:27;1.75;;;1.05;;
30998;SDS011;20549;50.042;8.968;2022-09-09T07:16:54;3.15;;;0.70;;
30998;SDS011;20549;50.042;8.968;2022-09-09T07:19:20;2.62;;;1.00;;
30998;SDS011;20549;50.042;8.968;2022-09-09T07:21:47;1.07;;;0.68;;
30998;SDS011;20549;50.042;8.968;2022-09-09T07:24:14;2.10;;;1.00;;
30998;SDS011;20549;50.042;8.968;2022-09-09T07:26:40;2.52;;;1.20;;
30998;SDS011;20549;50.042;8.968;2022-09-09T07:29:08;1.35;;;0.78;;
30998;SDS011;20549;50.042;8.968;2022-09-09T07:31:34;1.00;;;0.80;;
30998;SDS011;20549;50.042;8.968;2022-09-09T07:34:00;1.72;;;0.88;;
30998;SDS011;20549;50.042;8.968;2022-09-09T07:36:30;1.62;;;0.90;;
30998;SDS011;20549;50.042;8.968;2022-09-09T07:38:57;1.85;;;0.80;;
30998;SDS011;20549;50.042;8.968;2022-09-09T07:41:24;1.45;;;0.98;;
30998;SDS011;20549;50.042;8.968;2022-09-09T07:43:49;0.68;;;0.60;;
30998;SDS011;20549;50.042;8.968;2022-09-09T07:46:16;2.12;;;1.12;;
30998;SDS011;20549;50.042;8.968;2022-09-09T07:48:49;2.15;;;0.93;;
30998;SDS011;20549;50.042;8.968;2022-09-09T07:51:15;0.65;;;0.45;;
30998;SDS011;20549;50.042;8.968;2022-09-09T07:53:41;1.00;;;0.72;;
30998;SDS011;20549;50.042;8.968;2022-09-09T07:56:09;3.42;;;1.20;;
30998;SDS011;20549;50.042;8.968;2022-09-09T07:58:35;1.20;;;0.90;;
30998;SDS011;20549;50.042;8.968;2022-09-09T08:01:05;2.08;;;0.93;;
30998;SDS011;20549;50.042;8.968;2022-09-09T08:03:28;2.17;;;0.98;;
30998;SDS011;20549;50.042;8.968;2022-09-09T08:05:59;2.08;;;0.90;;
30998;SDS011;20549;50.042;8.968;2022-09-09T08:08:21;1.90;;;1.05;;
30998;SDS011;20549;50.042;8.968;2022-09-09T08:10:47;2.12;;;1.25;;
30998;SDS011;20549;50.042;8.968;2022-09-09T08:13:14;1.20;;;0.90;;
30998;SDS011;20549;50.042;8.968;2022-09-09T08:15:40;2.50;;;1.00;;
30998;SDS011;20549;50.042;8.968;2022-09-09T08:18:07;6.58;;;1.17;;
30998;SDS011;20549;50.042;8.968;2022-09-09T08:20:35;3.50;;;1.00;;
30998;SDS011;20549;50.042;8.968;2022-09-09T08:23:00;1.90;;;0.90;;
30998;SDS011;20549;50.042;8.968;2022-09-09T08:25:27;2.72;;;1.17;;
30998;SDS011;20549;50.042;8.968;2022-09-09T08:27:53;1.40;;;0.75;;
30998;SDS011;20549;50.042;8.968;2022-09-09T08:30:20;1.17;;;0.90;;
30998;SDS011;20549;50.042;8.968;2022-09-09T08:32:48;1.05;;;0.78;;
30998;SDS011;20549;50.042;8.968;2022-09-09T08:35:13;1.60;;;0.90;;
30998;SDS011;20549;50.042;8.968;2022-09-09T08:37:40;1.05;;;0.70;;
30998;SDS011;20549;50.042;8.968;2022-09-09T08:40:22;2.75;;;1.20;;
30998;SDS011;20549;50.042;8.968;2022-09-09T08:42:44;1.87;;;0.95;;
30998;SDS011;20549;50.042;8.968;2022-09-09T08:45:12;2.05;;;0.90;;
30998;SDS011;20549;50.042;8.968;2022-09-09T08:47:45;1.70;;;0.90;;
30998;SDS011;20549;50.042;8.968;2022-09-09T08:50:16;1.52;;;0.72;;
30998;SDS011;20549;50.042;8.968;2022-09-09T08:55:23;3.40;;;1.05;;
30998;SDS011;20549;50.042;8.968;2022-09-09T08:57:51;2.37;;;0.98;;
30998;SDS011;20549;50.042;8.968;2022-09-09T09:00:16;2.22;;;1.20;;
30998;SDS011;20549;50.042;8.968;2022-09-09T09:05:47;1.57;;;0.75;;
30998;SDS011;20549;50.042;8.968;2022-09-09T09:08:26;1.20;;;0.80;;
30998;SDS011;20549;50.042;8.968;2022-09-09T09:10:53;1.45;;;0.90;;
30998;SDS011;20549;50.042;8.968;2022-09-09T09:13:18;2.83;;;1.02;;
30998;SDS011;20549;50.042;8.968;2022-09-09T09:15:44;1.67;;;1.02;;
30998;SDS011;20549;50.042;8.968;2022-09-09T09:18:12;3.75;;;1.20;;
30998;SDS011;20549;50.042;8.968;2022-09-09T09:20:49;2.92;;;1.30;;
30998;SDS011;20549;50.042;8.968;2022-09-09T09:23:16;2.60;;;1.00;;
30998;SDS011;20549;50.042;8.968;2022-09-09T09:25:40;3.50;;;1.10;;
30998;SDS011;20549;50.042;8.968;2022-09-09T09:30:39;2.77;;;1.12;;
30998;SDS011;20549;50.042;8.968;2022-09-09T09:33:08;2.72;;;1.17;;
30998;SDS011;20549;50.042;8.968;2022-09-09T09:35:32;2.15;;;0.75;;
30998;SDS011;20549;50.042;8.968;2022-09-09T09:37:59;1.85;;;0.93;;
30998;SDS011;20549;50.042;8.968;2022-09-09T09:40:25;2.30;;;1.30;;
30998;SDS011;20549;50.042;8.968;2022-09-09T09:42:53;1.10;;;0.90;;
30998;SDS011;20549;50.042;8.968;2022-09-09T09:45:34;2.70;;;1.20;;
30998;SDS011;20549;50.042;8.968;2022-09-09T09:48:01;2.20;;;1.00;;
30998;SDS011;20549;50.042;8.968;2022-09-09T09:50:27;2.33;;;0.93;;
30998;SDS011;20549;50.042;8.968;2022-09-09T09:52:57;2.00;;;1.07;;
30998;SDS011;20549;50.042;8.968;2022-09-09T09:55:20;1.82;;;0.93;;
30998;SDS011;20549;50.042;8.968;2022-09-09T09:57:46;1.45;;;0.88;;
30998;SDS011;20549;50.042;8.968;2022-09-09T10:00:17;2.52;;;1.02;;
30998;SDS011;20549;50.042;8.968;2022-09-09T10:02:43;2.77;;;1.02;;
30998;SDS011;20549;50.042;8.968;2022-09-09T10:05:17;4.08;;;1.32;;
30998;SDS011;20549;50.042;8.968;2022-09-09T10:07:44;1.12;;;0.70;;
30998;SDS011;20549;50.042;8.968;2022-09-09T10:10:22;3.55;;;1.25;;
30998;SDS011;20549;50.042;8.968;2022-09-09T10:12:56;3.67;;;1.17;;
30998;SDS011;20549;50.042;8.968;2022-09-09T10:21:00;3.33;;;1.60;;
30998;SDS011;20549;50.042;8.968;2022-09-09T10:32:17;1.87;;;1.00;;
30998;SDS011;20549;50.042;8.968;2022-09-09T10:35:04;3.45;;;1.27;;
30998;SDS011;20549;50.042;8.968;2022-09-09T10:42:43;1.77;;;0.90;;
30998;SDS011;20549;50.042;8.968;2022-09-09T10:45:20;2.87;;;1.10;;
30998;SDS011;20549;50.042;8.968;2022-09-09T10:50:37;3.02;;;1.30;;
30998;SDS011;20549;50.042;8.968;2022-09-09T10:55:35;1.47;;;0.82;;
30998;SDS011;20549;50.042;8.968;2022-09-09T10:58:04;2.90;;;1.20;;
30998;SDS011;20549;50.042;8.968;2022-09-09T11:03:03;1.12;;;0.75;;
30998;SDS011;20549;50.042;8.968;2022-09-09T11:05:31;1.57;;;0.80;;
30998;SDS011;20549;50.042;8.968;2022-09-09T11:07:58;2.27;;;0.62;;
30998;SDS011;20549;50.042;8.968;2022-09-09T11:10:38;1.95;;;0.82;;
30998;SDS011;20549;50.042;8.968;2022-09-09T11:13:58;1.52;;;0.75;;
30998;SDS011;20549;50.042;8.968;2022-09-09T11:15:56;1.87;;;1.20;;
30998;SDS011;20549;50.042;8.968;2022-09-09T11:18:21;2.12;;;0.78;;
30998;SDS011;20549;50.042;8.968;2022-09-09T11:20:48;3.33;;;1.35;;
30998;SDS011;20549;50.042;8.968;2022-09-09T11:23:18;1.77;;;0.90;;
30998;SDS011;20549;50.042;8.968;2022-09-09T11:25:45;2.45;;;1.15;;
30998;SDS011;20549;50.042;8.968;2022-09-09T11:38:27;1.80;;;0.57;;
30998;SDS011;20549;50.042;8.968;2022-09-09T11:41:11;1.20;;;0.80;;
30998;SDS011;20549;50.042;8.968;2022-09-09T11:43:39;1.72;;;0.80;;
30998;SDS011;20549;50.042;8.968;2022-09-09T11:46:04;3.52;;;0.70;;
30998;SDS011;20549;50.042;8.968;2022-09-09T11:48:32;1.12;;;0.55;;
30998;SDS011;20549;50.042;8.968;2022-09-09T11:51:13;0.88;;;0.55;;
30998;SDS011;20549;50.042;8.968;2022-09-09T11:53:47;1.00;;;0.50;;
30998;SDS011;20549;50.042;8.968;2022-09-09T11:56:12;0.98;;;0.35;;
30998;SDS011;20549;50.042;8.968;2022-09-09T11:58:29;0.30;;;0.30;;
30998;SDS011;20549;50.042;8.968;2022-09-09T12:00:55;0.30;;;0.25;;
30998;SDS011;20549;50.042;8.968;2022-09-09T12:06:20;2.12;;;0.65;;
30998;SDS011;20549;50.042;8.968;2022-09-09T12:08:49;0.75;;;0.50;;
30998;SDS011;20549;50.042;8.968;2022-09-09T12:11:23;1.35;;;0.72;;
30998;SDS011;20549;50.042;8.968;2022-09-09T12:13:41;0.78;;;0.70;;
30998;SDS011;20549;50.042;8.968;2022-09-09T12:16:27;0.95;;;0.50;;
30998;SDS011;20549;50.042;8.968;2022-09-09T12:18:35;0.88;;;0.60;;
30998;SDS011;20549;50.042;8.968;2022-09-09T12:21:06;1.47;;;0.57;;
30998;SDS011;20549;50.042;8.968;2022-09-09T12:23:31;2.12;;;1.20;;
30998;SDS011;20549;50.042;8.968;2022-09-09T12:29:02;1.27;;;0.65;;
30998;SDS011;20549;50.042;8.968;2022-09-09T12:31:44;1.77;;;0.90;;
30998;SDS011;20549;50.042;8.968;2022-09-09T12:34:18;1.32;;;0.88;;
30998;SDS011;20549;50.042;8.968;2022-09-09T12:36:44;1.72;;;0.75;;
30998;SDS011;20549;50.042;8.968;2022-09-09T12:39:14;3.22;;;1.02;;
30998;SDS011;20549;50.042;8.968;2022-09-09T12:41:36;1.85;;;0.68;;
30998;SDS011;20549;50.042;8.968;2022-09-09T12:44:04;1.15;;;0.65;;
30998;SDS011;20549;50.042;8.968;2022-09-09T12:46:33;3.08;;;0.98;;
30998;SDS011;20549;50.042;8.968;2022-09-09T12:49:04;3.87;;;1.20;;
30998;SDS011;20549;50.042;8.968;2022-09-09T12:51:31;2.37;;;1.10;;
30998;SDS011;20549;50.042;8.968;2022-09-09T12:54:00;2.10;;;0.95;;
30998;SDS011;20549;50.042;8.968;2022-09-09T12:56:27;2.30;;;0.75;;
30998;SDS011;20549;50.042;8.968;2022-09-09T12:58:53;1.67;;;0.68;;
30998;SDS011;20549;50.042;8.968;2022-09-09T13:01:26;2.27;;;1.17;;
30998;SDS011;20549;50.042;8.968;2022-09-09T13:03:52;2.92;;;0.93;;
30998;SDS011;20549;50.042;8.968;2022-09-09T13:06:20;3.08;;;0.98;;
30998;SDS011;20549;50.042;8.968;2022-09-09T13:08:45;3.60;;;1.02;;
30998;SDS011;20549;50.042;8.968;2022-09-09T13:11:16;3.90;;;1.30;;
30998;SDS011;20549;50.042;8.968;2022-09-09T13:13:41;1.75;;;0.85;;
30998;SDS011;20549;50.042;8.968;2022-09-09T13:16:28;1.25;;;0.78;;
30998;SDS011;20549;50.042;8.968;2022-09-09T13:18:49;2.52;;;0.70;;
30998;SDS011;20549;50.042;8.968;2022-09-09T13:21:16;0.95;;;0.65;;
30998;SDS011;20549;50.042;8.968;2022-09-09T13:23:42;0.85;;;0.80;;
30998;SDS011;20549;50.042;8.968;2022-09-09T13:26:23;1.72;;;1.05;;
30998;SDS011;20549;50.042;8.968;2022-09-09T13:28:51;1.75;;;0.82;;
30998;SDS011;20549;50.042;8.968;2022-09-09T13:31:24;2.47;;;0.80;;
30998;SDS011;20549;50.042;8.968;2022-09-09T13:33:49;2.42;;;0.80;;
30998;SDS011;20549;50.042;8.968;2022-09-09T13:36:16;1.77;;;0.88;;
30998;SDS011;20549;50.042;8.968;2022-09-09T13:41:18;1.52;;;0.80;;
30998;SDS011;20549;50.042;8.968;2022-09-09T13:43:42;2.12;;;0.75;;
30998;SDS011;20549;50.042;8.968;2022-09-09T13:49:00;2.17;;;0.62;;
30998;SDS011;20549;50.042;8.968;2022-09-09T13:51:47;1.40;;;0.70;;
30998;SDS011;20549;50.042;8.968;2022-09-09T13:54:14;2.62;;;0.85;;
30998;SDS011;20549;50.042;8.968;2022-09-09T13:56:40;1.72;;;1.00;;
30998;SDS011;20549;50.042;8.968;2022-09-09T13:59:17;1.40;;;0.75;;
30998;SDS011;20549;50.042;8.968;2022-09-09T14:01:42;1.62;;;0.60;;
30998;SDS011;20549;50.042;8.968;2022-09-09T14:04:08;2.05;;;0.35;;
30998;SDS011;20549;50.042;8.968;2022-09-09T14:06:35;0.85;;;0.45;;
30998;SDS011;20549;50.042;8.968;2022-09-09T14:09:09;0.72;;;0.47;;
30998;SDS011;20549;50.042;8.968;2022-09-09T14:11:33;0.65;;;0.37;;
30998;SDS011;20549;50.042;8.968;2022-09-09T14:14:00;1.85;;;0.33;;
30998;SDS011;20549;50.042;8.968;2022-09-09T14:16:27;1.55;;;0.60;;
30998;SDS011;20549;50.042;8.968;2022-09-09T14:18:53;1.55;;;0.33;;
30998;SDS011;20549;50.042;8.968;2022-09-09T14:21:20;1.30;;;0.40;;
30998;SDS011;20549;50.042;8.968;2022-09-09T14:23:46;0.53;;;0.37;;
30998;SDS011;20549;50.042;8.968;2022-09-09T14:26:13;0.88;;;0.45;;
30998;SDS011;20549;50.042;8.968;2022-09-09T14:28:40;1.57;;;0.37;;
30998;SDS011;20549;50.042;8.968;2022-09-09T14:31:06;1.42;;;0.45;;
30998;SDS011;20549;50.042;8.968;2022-09-09T14:33:33;1.02;;;0.37;;
30998;SDS011;20549;50.042;8.968;2022-09-09T14:36:00;0.85;;;0.70;;
30998;SDS011;20549;50.042;8.968;2022-09-09T14:38:29;1.07;;;0.60;;
30998;SDS011;20549;50.042;8.968;2022-09-09T14:40:58;1.57;;;0.57;;
30998;SDS011;20549;50.042;8.968;2022-09-09T14:43:25;1.10;;;0.40;;
30998;SDS011;20549;50.042;8.968;2022-09-09T14:45:51;1.17;;;0.50;;
30998;SDS011;20549;50.042;8.968;2022-09-09T14:48:18;1.12;;;0.60;;
30998;SDS011;20549;50.042;8.968;2022-09-09T14:50:45;0.80;;;0.40;;
30998;SDS011;20549;50.042;8.968;2022-09-09T14:53:11;1.57;;;0.82;;
30998;SDS011;20549;50.042;8.968;2022-09-09T14:55:38;0.70;;;0.40;;
30998;SDS011;20549;50.042;8.968;2022-09-09T14:58:04;0.40;;;0.30;;
30998;SDS011;20549;50.042;8.968;2022-09-09T15:00:31;1.25;;;0.53;;
30998;SDS011;20549;50.042;8.968;2022-09-09T15:02:57;1.30;;;0.65;;
30998;SDS011;20549;50.042;8.968;2022-09-09T15:05:24;0.45;;;0.40;;
30998;SDS011;20549;50.042;8.968;2022-09-09T15:07:51;1.22;;;0.62;;
30998;SDS011;20549;50.042;8.968;2022-09-09T15:10:17;2.17;;;0.95;;
30998;SDS011;20549;50.042;8.968;2022-09-09T15:12:44;0.68;;;0.37;;
30998;SDS011;20549;50.042;8.968;2022-09-09T15:15:10;0.65;;;0.37;;
30998;SDS011;20549;50.042;8.968;2022-09-09T15:17:37;2.58;;;0.75;;
30998;SDS011;20549;50.042;8.968;2022-09-09T15:20:04;1.00;;;0.60;;
30998;SDS011;20549;50.042;8.968;2022-09-09T15:22:30;0.82;;;0.35;;
30998;SDS011;20549;50.042;8.968;2022-09-09T15:24:57;0.57;;;0.50;;
30998;SDS011;20549;50.042;8.968;2022-09-09T15:27:23;0.98;;;0.75;;
30998;SDS011;20549;50.042;8.968;2022-09-09T15:29:50;1.00;;;0.70;;
30998;SDS011;20549;50.042;8.968;2022-09-09T15:32:17;3.25;;;0.57;;
30998;SDS011;20549;50.042;8.968;2022-09-09T15:34:43;1.10;;;0.13;;
30998;SDS011;20549;50.042;8.968;2022-09-09T15:37:10;1.75;;;0.50;;
30998;SDS011;20549;50.042;8.968;2022-09-09T15:39:36;0.78;;;0.50;;
30998;SDS011;20549;50.042;8.968;2022-09-09T15:42:03;0.62;;;0.53;;
30998;SDS011;20549;50.042;8.968;2022-09-09T15:44:30;0.53;;;0.20;;
30998;SDS011;20549;50.042;8.968;2022-09-09T15:46:56;0.55;;;0.42;;
30998;SDS011;20549;50.042;8.968;2022-09-09T15:49:23;0.57;;;0.50;;
30998;SDS011;20549;50.042;8.968;2022-09-09T15:51:56;1.25;;;0.70;;
30998;SDS011;20549;50.042;8.968;2022-09-09T15:54:22;0.53;;;0.33;;
30998;SDS011;20549;50.042;8.968;2022-09-09T15:56:53;0.53;;;0.23;;
30998;SDS011;20549;50.042;8.968;2022-09-09T15:59:15;1.15;;;0.50;;
30998;SDS011;20549;50.042;8.968;2022-09-09T16:01:42;0.40;;;0.40;;
30998;SDS011;20549;50.042;8.968;2022-09-09T16:04:08;1.00;;;0.37;;
30998;SDS011;20549;50.042;8.968;2022-09-09T16:06:35;1.65;;;0.70;;
30998;SDS011;20549;50.042;8.968;2022-09-09T16:09:02;2.62;;;0.50;;